Time;durP1;ratioP1;P1;durP2;ratioP2;P2;SDS_P1;SDS_P2;PMS_P1;PMS_P2;Temp;Humidity;BMP_temperature;BMP_pressure;BME280_temperature;BME280_humidity;BME280_pressure;Samples;Min_cycle;Max_cycle;Signal;HPM_P1;HPM_P2
2022/03/10 00:01:08;;;;;;;44.97;22.25;;;;;;;;;;7378214;19;20328;-77
2022/03/10 00:03:33;;;;;;;42.67;20.40;;;;;;;;;;7370885;19;20006;-76
2022/03/10 00:05:58;;;;;;;42.97;20.90;;;;;;;;;;7369243;19;20007;-77
2022/03/10 00:08:23;;;;;;;48.40;22.38;;;;;;;;;;7372514;19;20027;-75
2022/03/10 00:10:49;;;;;;;47.53;22.00;;;;;;;;;;7359787;19;20001;-75
2022/03/10 00:13:14;;;;;;;45.35;22.52;;;;;;;;;;7370840;19;20022;-74
2022/03/10 00:15:39;;;;;;;41.72;19.73;;;;;;;;;;7367923;19;20348;-76
2022/03/10 00:18:05;;;;;;;43.00;20.47;;;;;;;;;;7367576;19;19999;-75
2022/03/10 00:20:30;;;;;;;42.45;21.50;;;;;;;;;;7371342;19;20251;-76
2022/03/10 00:22:56;;;;;;;42.63;20.83;;;;;;;;;;7377677;19;20454;-75
2022/03/10 00:25:22;;;;;;;42.22;20.08;;;;;;;;;;7357474;19;20239;-79
2022/03/10 00:27:47;;;;;;;41.10;20.17;;;;;;;;;;7373086;19;20490;-74
2022/03/10 00:30:12;;;;;;;42.80;21.02;;;;;;;;;;7372331;19;20411;-76
2022/03/10 00:32:45;;;;;;;45.85;22.58;;;;;;;;;;7373102;19;20007;-75
2022/03/10 00:35:10;;;;;;;45.35;22.55;;;;;;;;;;7364765;19;20101;-78
2022/03/10 00:37:36;;;;;;;48.38;21.92;;;;;;;;;;7368135;19;20010;-76
2022/03/10 00:40:01;;;;;;;45.35;21.63;;;;;;;;;;7368314;19;20006;-74
2022/03/10 00:42:27;;;;;;;42.55;18.92;;;;;;;;;;7365320;19;20007;-74
2022/03/10 00:44:52;;;;;;;39.67;19.30;;;;;;;;;;7372881;19;20058;-77
2022/03/10 00:47:19;;;;;;;46.28;21.83;;;;;;;;;;7371097;19;20781;-76
2022/03/10 00:49:44;;;;;;;44.47;21.42;;;;;;;;;;7362539;19;20016;-79
2022/03/10 00:52:09;;;;;;;43.40;21.52;;;;;;;;;;7376078;19;20074;-77
2022/03/10 00:54:34;;;;;;;45.63;21.25;;;;;;;;;;7373226;19;20366;-77
2022/03/10 00:57:00;;;;;;;42.83;19.92;;;;;;;;;;7367194;19;20018;-75
2022/03/10 00:59:25;;;;;;;46.95;22.27;;;;;;;;;;7370990;19;20014;-74
2022/03/10 01:01:50;;;;;;;40.22;20.40;;;;;;;;;;7368221;19;20021;-78
2022/03/10 01:04:16;;;;;;;42.17;21.83;;;;;;;;;;7370136;19;20474;-76
2022/03/10 01:06:41;;;;;;;41.47;20.15;;;;;;;;;;7363498;19;20095;-75
2022/03/10 01:09:06;;;;;;;43.72;21.92;;;;;;;;;;7369315;19;20032;-75
2022/03/10 01:11:33;;;;;;;46.42;21.70;;;;;;;;;;7363407;19;20010;-76
2022/03/10 01:13:58;;;;;;;45.55;20.50;;;;;;;;;;7364241;19;20002;-76
2022/03/10 01:16:23;;;;;;;44.42;19.98;;;;;;;;;;7372245;19;20003;-76
2022/03/10 01:18:48;;;;;;;42.05;20.35;;;;;;;;;;7369847;19;20030;-79
2022/03/10 01:21:14;;;;;;;40.35;20.50;;;;;;;;;;7365562;19;20617;-77
2022/03/10 01:23:39;;;;;;;44.70;20.50;;;;;;;;;;7373152;19;20006;-74
2022/03/10 01:26:04;;;;;;;42.70;19.73;;;;;;;;;;7368328;19;20010;-77
2022/03/10 01:28:29;;;;;;;48.30;21.88;;;;;;;;;;7367026;19;20010;-74
2022/03/10 01:30:55;;;;;;;47.97;22.67;;;;;;;;;;7379180;19;20214;-76
2022/03/10 01:33:20;;;;;;;41.00;20.85;;;;;;;;;;7381872;19;20458;-76
2022/03/10 01:35:45;;;;;;;40.42;20.92;;;;;;;;;;7368497;19;20013;-76
2022/03/10 01:38:10;;;;;;;45.63;21.27;;;;;;;;;;7374248;19;20014;-77
2022/03/10 01:40:36;;;;;;;42.50;20.80;;;;;;;;;;7374359;19;20014;-74
2022/03/10 01:43:01;;;;;;;42.25;20.05;;;;;;;;;;7377926;19;20002;-75
2022/03/10 01:45:28;;;;;;;43.97;21.83;;;;;;;;;;7367820;19;20009;-75
2022/03/10 01:47:53;;;;;;;43.72;22.13;;;;;;;;;;7378671;19;20034;-74
2022/03/10 01:50:18;;;;;;;46.58;21.30;;;;;;;;;;7369499;19;20577;-76
2022/03/10 01:52:44;;;;;;;44.22;21.58;;;;;;;;;;7372840;19;20010;-76
2022/03/10 01:55:09;;;;;;;45.25;21.48;;;;;;;;;;7349947;19;20015;-75
2022/03/10 01:57:34;;;;;;;45.67;22.25;;;;;;;;;;7378863;19;20510;-74
2022/03/10 02:00:00;;;;;;;45.67;21.05;;;;;;;;;;7360648;19;20002;-75
2022/03/10 02:02:25;;;;;;;44.00;20.05;;;;;;;;;;7377972;19;20454;-76
2022/03/10 02:04:51;;;;;;;40.97;21.30;;;;;;;;;;7372627;19;19998;-77
2022/03/10 02:10:18;;;;;;;46.10;21.20;;;;;;;;;;7364541;19;20015;-75
2022/03/10 02:12:47;;;;;;;43.70;20.25;;;;;;;;;;7377396;19;20021;-74
2022/03/10 02:17:57;;;;;;;45.22;20.85;;;;;;;;;;7379121;19;20049;-74
2022/03/10 02:20:22;;;;;;;42.60;19.13;;;;;;;;;;7378676;19;20073;-76
2022/03/10 02:22:48;;;;;;;41.38;19.90;;;;;;;;;;7375314;19;20331;-78
2022/03/10 02:25:15;;;;;;;50.00;20.58;;;;;;;;;;7369262;19;20350;-74
2022/03/10 02:27:40;;;;;;;42.20;19.88;;;;;;;;;;7374281;19;19995;-76
2022/03/10 02:30:05;;;;;;;43.15;20.00;;;;;;;;;;7365055;19;20260;-75
2022/03/10 02:32:31;;;;;;;43.63;21.02;;;;;;;;;;7361459;19;20019;-76
2022/03/10 02:34:56;;;;;;;44.53;20.83;;;;;;;;;;7365528;19;20463;-75
2022/03/10 02:37:21;;;;;;;53.38;21.33;;;;;;;;;;7368418;19;20054;-75
2022/03/10 02:39:47;;;;;;;43.28;21.27;;;;;;;;;;7361708;19;20046;-74
2022/03/10 02:42:12;;;;;;;47.83;21.35;;;;;;;;;;7368008;19;20002;-76
2022/03/10 02:44:41;;;;;;;43.97;20.27;;;;;;;;;;7367414;19;20431;-78
2022/03/10 02:47:07;;;;;;;46.08;21.38;;;;;;;;;;7370603;19;20009;-75
2022/03/10 02:49:32;;;;;;;48.28;21.27;;;;;;;;;;7359541;19;20362;-74
2022/03/10 02:51:57;;;;;;;44.35;20.23;;;;;;;;;;7363374;19;20002;-75
2022/03/10 02:54:23;;;;;;;46.05;20.48;;;;;;;;;;7361224;19;20126;-74
2022/03/10 02:56:48;;;;;;;47.58;21.50;;;;;;;;;;7356832;19;20018;-77
2022/03/10 02:59:13;;;;;;;40.60;19.00;;;;;;;;;;7366258;19;20936;-75
2022/03/10 03:01:38;;;;;;;45.08;20.48;;;;;;;;;;7376219;19;19998;-74
2022/03/10 03:04:03;;;;;;;43.40;21.30;;;;;;;;;;7365668;19;20117;-78
2022/03/10 03:06:29;;;;;;;40.92;19.55;;;;;;;;;;7363199;19;20214;-75
2022/03/10 03:08:54;;;;;;;47.88;20.08;;;;;;;;;;7372776;19;20006;-77
2022/03/10 03:11:19;;;;;;;40.10;19.92;;;;;;;;;;7371711;19;20577;-77
2022/03/10 03:13:44;;;;;;;48.08;20.33;;;;;;;;;;7369140;19;20022;-77
2022/03/10 03:16:09;;;;;;;46.78;21.45;;;;;;;;;;7375430;19;20002;-75
2022/03/10 03:18:35;;;;;;;52.42;22.88;;;;;;;;;;7374521;19;20509;-79
2022/03/10 03:21:00;;;;;;;42.22;19.70;;;;;;;;;;7366900;19;19998;-74
2022/03/10 03:23:25;;;;;;;37.70;18.48;;;;;;;;;;7370661;19;20033;-74
2022/03/10 03:25:51;;;;;;;45.63;21.50;;;;;;;;;;7370456;19;20006;-76
2022/03/10 03:28:16;;;;;;;42.00;20.83;;;;;;;;;;7365996;19;20429;-76
2022/03/10 03:30:42;;;;;;;48.05;20.75;;;;;;;;;;7372778;19;20140;-76
2022/03/10 03:33:07;;;;;;;44.53;21.08;;;;;;;;;;7374538;19;20511;-77
2022/03/10 03:35:32;;;;;;;46.88;20.58;;;;;;;;;;7374470;19;20454;-75
2022/03/10 03:37:57;;;;;;;38.72;19.73;;;;;;;;;;7362376;19;20495;-79
2022/03/10 03:40:23;;;;;;;46.35;20.70;;;;;;;;;;7371160;19;20003;-75
2022/03/10 03:42:48;;;;;;;42.70;20.40;;;;;;;;;;7373335;19;20003;-81
2022/03/10 03:45:13;;;;;;;44.40;20.63;;;;;;;;;;7358637;19;20017;-75
2022/03/10 03:47:38;;;;;;;47.22;21.63;;;;;;;;;;7370958;19;20003;-74
2022/03/10 03:50:04;;;;;;;42.70;21.20;;;;;;;;;;7369974;19;20433;-77
2022/03/10 03:52:29;;;;;;;44.42;21.38;;;;;;;;;;7364709;19;20009;-74
2022/03/10 03:54:55;;;;;;;41.72;20.92;;;;;;;;;;7367141;19;20098;-77
2022/03/10 03:57:20;;;;;;;49.95;22.10;;;;;;;;;;7363830;19;20459;-77
2022/03/10 03:59:45;;;;;;;47.10;20.63;;;;;;;;;;7364172;19;20030;-77
2022/03/10 04:02:10;;;;;;;47.83;20.63;;;;;;;;;;7369818;19;20125;-77
2022/03/10 04:04:35;;;;;;;44.17;21.00;;;;;;;;;;7364353;19;20011;-76
2022/03/10 04:07:01;;;;;;;42.05;19.42;;;;;;;;;;7367413;19;20007;-75
2022/03/10 04:09:26;;;;;;;44.80;20.02;;;;;;;;;;7359254;19;20392;-75
2022/03/10 04:11:51;;;;;;;41.80;19.45;;;;;;;;;;7362593;19;20415;-74
2022/03/10 04:14:18;;;;;;;45.63;20.65;;;;;;;;;;7375991;19;20026;-77
2022/03/10 04:16:43;;;;;;;48.45;21.38;;;;;;;;;;7372323;19;20029;-74
2022/03/10 04:19:09;;;;;;;47.10;21.02;;;;;;;;;;7374672;19;20011;-74
2022/03/10 04:21:34;;;;;;;42.85;20.40;;;;;;;;;;7380456;19;20002;-74
2022/03/10 04:23:59;;;;;;;47.42;20.95;;;;;;;;;;7369812;19;20569;-76
2022/03/10 04:26:25;;;;;;;44.78;20.90;;;;;;;;;;7366845;19;20074;-76
2022/03/10 04:28:50;;;;;;;45.45;21.60;;;;;;;;;;7379688;19;20082;-74
2022/03/10 04:31:15;;;;;;;44.40;20.58;;;;;;;;;;7381398;19;20040;-75
2022/03/10 04:33:40;;;;;;;48.63;20.90;;;;;;;;;;7370559;19;20011;-74
2022/03/10 04:36:05;;;;;;;49.80;21.60;;;;;;;;;;7377031;19;20466;-73
2022/03/10 04:38:31;;;;;;;50.53;21.17;;;;;;;;;;7379178;19;20231;-73
2022/03/10 04:40:56;;;;;;;42.78;19.85;;;;;;;;;;7368342;19;20342;-75
2022/03/10 04:43:21;;;;;;;46.33;21.42;;;;;;;;;;7381262;19;20010;-74
2022/03/10 04:45:46;;;;;;;45.88;21.30;;;;;;;;;;7378777;19;19991;-75
2022/03/10 04:48:11;;;;;;;48.47;22.13;;;;;;;;;;7380831;19;20007;-74
2022/03/10 04:50:37;;;;;;;47.03;22.35;;;;;;;;;;7370760;19;20014;-74
2022/03/10 04:53:03;;;;;;;47.67;21.17;;;;;;;;;;7379994;19;20328;-76
2022/03/10 04:55:28;;;;;;;52.75;21.77;;;;;;;;;;7378160;19;20470;-76
2022/03/10 04:57:53;;;;;;;49.15;21.35;;;;;;;;;;7371119;19;20034;-75
2022/03/10 05:00:19;;;;;;;50.70;22.85;;;;;;;;;;7373256;19;20045;-74
2022/03/10 05:02:44;;;;;;;49.95;21.67;;;;;;;;;;7376256;19;20561;-73
2022/03/10 05:05:12;;;;;;;42.50;20.70;;;;;;;;;;7378447;19;20039;-74
2022/03/10 05:07:37;;;;;;;43.60;19.92;;;;;;;;;;7370648;19;20473;-74
2022/03/10 05:10:03;;;;;;;43.08;20.98;;;;;;;;;;7371735;19;20090;-73
2022/03/10 05:12:28;;;;;;;46.53;20.63;;;;;;;;;;7374260;19;20086;-76
2022/03/10 05:14:53;;;;;;;43.50;20.65;;;;;;;;;;7357628;19;20568;-75
2022/03/10 05:17:18;;;;;;;48.65;21.67;;;;;;;;;;7364741;19;20375;-74
2022/03/10 05:19:44;;;;;;;46.70;20.15;;;;;;;;;;7371897;19;20001;-78
2022/03/10 05:22:09;;;;;;;49.63;20.52;;;;;;;;;;7373483;19;20013;-77
2022/03/10 05:24:35;;;;;;;45.22;20.20;;;;;;;;;;7366662;19;20003;-74
2022/03/10 05:27:01;;;;;;;42.50;19.65;;;;;;;;;;7371682;19;20020;-80
2022/03/10 05:29:26;;;;;;;45.63;20.70;;;;;;;;;;7367894;19;20039;-76
2022/03/10 05:31:51;;;;;;;44.45;18.90;;;;;;;;;;7377052;19;19998;-73
2022/03/10 05:34:17;;;;;;;48.88;20.70;;;;;;;;;;7379968;19;20014;-76
2022/03/10 05:36:42;;;;;;;44.15;20.08;;;;;;;;;;7370824;19;20463;-76
2022/03/10 05:39:07;;;;;;;48.03;18.98;;;;;;;;;;7377649;19;20009;-75
2022/03/10 05:41:33;;;;;;;44.53;19.38;;;;;;;;;;7376484;19;20002;-74
2022/03/10 05:43:58;;;;;;;41.92;18.60;;;;;;;;;;7372910;19;20010;-76
2022/03/10 05:46:23;;;;;;;42.63;19.58;;;;;;;;;;7376583;19;20010;-73
2022/03/10 05:48:49;;;;;;;41.92;18.10;;;;;;;;;;7367939;19;20036;-76
2022/03/10 05:51:14;;;;;;;41.33;19.50;;;;;;;;;;7376578;19;20086;-74
2022/03/10 05:53:39;;;;;;;51.35;20.65;;;;;;;;;;7373393;19;20006;-75
2022/03/10 05:56:04;;;;;;;48.08;19.45;;;;;;;;;;7366196;19;20029;-73
2022/03/10 05:58:29;;;;;;;46.50;21.13;;;;;;;;;;7373855;19;20003;-76
2022/03/10 06:00:55;;;;;;;43.78;18.90;;;;;;;;;;7374481;19;20018;-74
2022/03/10 06:03:20;;;;;;;47.30;19.83;;;;;;;;;;7365397;19;20459;-74
2022/03/10 06:05:45;;;;;;;44.03;19.70;;;;;;;;;;7376534;19;20018;-73
2022/03/10 06:08:10;;;;;;;45.50;19.67;;;;;;;;;;7374708;19;20010;-75
2022/03/10 06:10:36;;;;;;;41.22;19.48;;;;;;;;;;7373346;19;20505;-76
2022/03/10 06:13:01;;;;;;;44.83;19.33;;;;;;;;;;7370056;19;20003;-74
2022/03/10 06:15:27;;;;;;;45.65;20.00;;;;;;;;;;7371360;19;20014;-73
2022/03/10 06:17:52;;;;;;;44.33;19.63;;;;;;;;;;7372407;19;19991;-76
2022/03/10 06:20:17;;;;;;;45.88;19.15;;;;;;;;;;7361319;19;20399;-74
2022/03/10 06:22:43;;;;;;;45.15;20.23;;;;;;;;;;7374499;19;20009;-75
2022/03/10 06:25:09;;;;;;;40.83;18.75;;;;;;;;;;7363420;19;20347;-77
2022/03/10 06:27:35;;;;;;;44.25;19.83;;;;;;;;;;7375831;19;20487;-74
2022/03/10 06:30:00;;;;;;;39.00;18.90;;;;;;;;;;7375100;19;20003;-79
2022/03/10 06:32:25;;;;;;;38.78;18.08;;;;;;;;;;7367286;19;20102;-76
2022/03/10 06:34:52;;;;;;;45.28;20.23;;;;;;;;;;7379594;19;20018;-75
2022/03/10 06:37:18;;;;;;;41.67;18.85;;;;;;;;;;7377889;19;20034;-76
2022/03/10 06:39:43;;;;;;;42.05;20.00;;;;;;;;;;7374144;19;19995;-75
2022/03/10 06:42:11;;;;;;;37.13;17.75;;;;;;;;;;7380898;19;20078;-75
2022/03/10 06:44:37;;;;;;;42.20;20.30;;;;;;;;;;7371291;19;20070;-74
2022/03/10 06:47:05;;;;;;;44.78;20.00;;;;;;;;;;7373252;19;20003;-75
2022/03/10 06:49:30;;;;;;;41.75;20.40;;;;;;;;;;7381857;19;20359;-73
2022/03/10 06:51:56;;;;;;;51.22;23.55;;;;;;;;;;7375360;19;20034;-75
2022/03/10 06:54:21;;;;;;;46.42;22.60;;;;;;;;;;7379739;19;20018;-75
2022/03/10 06:56:46;;;;;;;50.47;23.48;;;;;;;;;;7381420;19;20018;-74
2022/03/10 06:59:12;;;;;;;49.42;23.13;;;;;;;;;;7380941;19;20066;-76
2022/03/10 07:01:37;;;;;;;48.67;23.10;;;;;;;;;;7378258;19;20014;-74
2022/03/10 07:04:03;;;;;;;52.47;24.08;;;;;;;;;;7381175;19;20007;-75
2022/03/10 07:06:28;;;;;;;51.97;24.70;;;;;;;;;;7371590;19;20015;-76
2022/03/10 07:08:53;;;;;;;53.45;25.73;;;;;;;;;;7370010;19;20003;-76
2022/03/10 07:11:19;;;;;;;53.03;24.95;;;;;;;;;;7359986;19;20018;-76
2022/03/10 07:13:44;;;;;;;54.42;24.80;;;;;;;;;;7356555;19;20022;-75
2022/03/10 07:16:10;;;;;;;52.85;25.08;;;;;;;;;;7343660;19;20014;-79
2022/03/10 07:18:35;;;;;;;53.47;24.08;;;;;;;;;;7361927;19;20006;-77
2022/03/10 07:21:02;;;;;;;52.35;23.05;;;;;;;;;;7378383;19;20017;-77
2022/03/10 07:23:27;;;;;;;53.17;23.70;;;;;;;;;;7365471;19;20014;-76
2022/03/10 07:25:52;;;;;;;50.60;23.25;;;;;;;;;;7366328;19;20030;-77
2022/03/10 07:28:18;;;;;;;43.22;21.52;;;;;;;;;;7375550;19;20014;-76
2022/03/10 07:30:43;;;;;;;58.40;24.63;;;;;;;;;;7369388;19;20003;-77
2022/03/10 07:33:09;;;;;;;47.30;23.52;;;;;;;;;;7357578;19;20270;-77
2022/03/10 07:35:34;;;;;;;51.10;23.17;;;;;;;;;;7371718;19;20007;-77
2022/03/10 07:37:59;;;;;;;46.43;22.30;;;;;;;;;;7362772;19;20041;-77
2022/03/10 07:40:25;;;;;;;44.67;23.23;;;;;;;;;;7368519;19;20330;-78
2022/03/10 07:42:50;;;;;;;47.92;23.42;;;;;;;;;;7375400;19;20038;-78
2022/03/10 07:45:16;;;;;;;50.83;25.38;;;;;;;;;;7372758;19;20471;-77
2022/03/10 07:47:41;;;;;;;54.80;26.48;;;;;;;;;;7381257;19;20033;-77
2022/03/10 07:50:07;;;;;;;55.80;26.63;;;;;;;;;;7381509;19;20011;-78
2022/03/10 07:52:32;;;;;;;61.30;27.02;;;;;;;;;;7378402;19;20246;-77
2022/03/10 07:54:57;;;;;;;51.90;24.35;;;;;;;;;;7376354;19;20119;-77
2022/03/10 07:57:22;;;;;;;51.42;23.40;;;;;;;;;;7379138;19;20006;-77
2022/03/10 07:59:47;;;;;;;50.20;23.20;;;;;;;;;;7371479;19;20478;-78
2022/03/10 08:02:13;;;;;;;49.13;24.90;;;;;;;;;;7380991;19;20011;-78
2022/03/10 08:04:38;;;;;;;48.53;23.88;;;;;;;;;;7375458;19;19995;-78
2022/03/10 08:07:03;;;;;;;46.88;23.13;;;;;;;;;;7372501;19;20014;-78
2022/03/10 08:09:29;;;;;;;47.80;23.90;;;;;;;;;;7371637;19;20337;-77
2022/03/10 08:11:54;;;;;;;48.03;24.77;;;;;;;;;;7375161;19;20069;-78
2022/03/10 08:14:19;;;;;;;47.50;21.70;;;;;;;;;;7371262;19;20009;-78
2022/03/10 08:16:44;;;;;;;44.90;22.55;;;;;;;;;;7380968;19;20247;-78
2022/03/10 08:19:10;;;;;;;49.63;23.90;;;;;;;;;;7378319;19;20017;-78
2022/03/10 08:21:35;;;;;;;45.78;23.58;;;;;;;;;;7363999;19;20035;-77
2022/03/10 08:24:00;;;;;;;50.90;24.55;;;;;;;;;;7370777;19;20017;-77
2022/03/10 08:26:26;;;;;;;43.13;21.92;;;;;;;;;;7375296;19;20437;-77
2022/03/10 08:28:52;;;;;;;46.67;23.23;;;;;;;;;;7368977;19;20259;-75
2022/03/10 08:31:18;;;;;;;42.15;21.30;;;;;;;;;;7371752;19;20093;-76
2022/03/10 08:33:44;;;;;;;41.75;21.33;;;;;;;;;;7376765;19;20014;-76
2022/03/10 08:36:10;;;;;;;40.17;21.60;;;;;;;;;;7368176;19;20396;-75
2022/03/10 08:38:35;;;;;;;44.00;21.52;;;;;;;;;;7372206;19;20048;-76
2022/03/10 08:41:01;;;;;;;43.75;19.88;;;;;;;;;;7380479;19;19998;-75
2022/03/10 08:43:29;;;;;;;53.53;22.73;;;;;;;;;;7369855;19;20146;-75
2022/03/10 08:45:54;;;;;;;41.88;19.77;;;;;;;;;;7379218;19;20026;-76
2022/03/10 08:48:19;;;;;;;50.28;21.48;;;;;;;;;;7380522;19;20011;-75
2022/03/10 08:50:45;;;;;;;42.20;20.23;;;;;;;;;;7372615;19;20007;-76
2022/03/10 08:53:10;;;;;;;40.67;18.63;;;;;;;;;;7379482;19;20941;-76
2022/03/10 08:55:35;;;;;;;43.67;21.02;;;;;;;;;;7376819;19;20356;-76
2022/03/10 08:58:01;;;;;;;35.58;18.38;;;;;;;;;;7370065;19;20077;-76
2022/03/10 09:00:26;;;;;;;38.97;19.23;;;;;;;;;;7379973;19;20434;-76
2022/03/10 09:02:51;;;;;;;36.08;17.88;;;;;;;;;;7380404;19;19999;-77
2022/03/10 09:05:17;;;;;;;36.15;18.35;;;;;;;;;;7366700;19;20016;-76
2022/03/10 09:07:43;;;;;;;39.13;18.38;;;;;;;;;;7375165;19;20423;-76
2022/03/10 09:10:09;;;;;;;39.72;18.63;;;;;;;;;;7356478;19;20014;-77
2022/03/10 09:12:35;;;;;;;37.20;19.48;;;;;;;;;;7364573;19;20390;-76
2022/03/10 09:15:00;;;;;;;43.80;20.35;;;;;;;;;;7365900;19;20018;-77
2022/03/10 09:17:26;;;;;;;40.33;19.20;;;;;;;;;;7375475;19;19991;-77
2022/03/10 09:19:51;;;;;;;39.42;19.50;;;;;;;;;;7360951;19;20102;-77
2022/03/10 09:22:17;;;;;;;38.15;18.55;;;;;;;;;;7367055;19;20074;-76
2022/03/10 09:24:42;;;;;;;35.97;18.92;;;;;;;;;;7366030;19;20025;-76
2022/03/10 09:27:09;;;;;;;37.22;19.25;;;;;;;;;;7359492;19;20397;-76
2022/03/10 09:29:34;;;;;;;39.13;20.20;;;;;;;;;;7365828;19;20022;-76
2022/03/10 09:31:59;;;;;;;38.83;20.30;;;;;;;;;;7370667;19;20545;-76
2022/03/10 09:34:24;;;;;;;43.63;21.40;;;;;;;;;;7361867;19;20245;-76
2022/03/10 09:36:50;;;;;;;36.15;18.92;;;;;;;;;;7365584;19;20306;-76
2022/03/10 09:39:17;;;;;;;43.42;19.95;;;;;;;;;;7361837;19;20110;-76
2022/03/10 09:41:42;;;;;;;39.10;20.40;;;;;;;;;;7366371;19;20014;-76
2022/03/10 09:44:18;;;;;;;45.78;20.17;;;;;;;;;;7370134;19;20422;-76
2022/03/10 09:46:44;;;;;;;38.28;19.50;;;;;;;;;;7359672;19;20021;-75
2022/03/10 09:49:09;;;;;;;34.92;18.35;;;;;;;;;;7364811;19;20006;-76
2022/03/10 09:51:34;;;;;;;34.17;17.58;;;;;;;;;;7358845;19;20010;-75
2022/03/10 09:53:59;;;;;;;34.88;18.98;;;;;;;;;;7366904;19;19999;-76
2022/03/10 09:56:26;;;;;;;37.13;19.20;;;;;;;;;;7365877;19;19998;-75
2022/03/10 09:58:51;;;;;;;38.00;19.30;;;;;;;;;;7371018;19;20569;-76
2022/03/10 10:01:16;;;;;;;33.22;17.02;;;;;;;;;;7361313;19;20088;-76
2022/03/10 10:03:41;;;;;;;32.80;17.47;;;;;;;;;;7375007;19;20070;-77
2022/03/10 10:06:07;;;;;;;32.60;17.77;;;;;;;;;;7369123;19;20252;-76
2022/03/10 10:08:34;;;;;;;36.13;18.38;;;;;;;;;;7356444;19;20015;-76
2022/03/10 10:11:00;;;;;;;33.85;17.75;;;;;;;;;;7370075;19;20328;-76
2022/03/10 10:13:29;;;;;;;31.63;17.02;;;;;;;;;;7372350;19;20022;-76
2022/03/10 10:15:56;;;;;;;33.28;17.92;;;;;;;;;;7364750;19;20010;-76
2022/03/10 10:18:22;;;;;;;32.63;18.00;;;;;;;;;;7376223;19;20056;-76
2022/03/10 10:20:48;;;;;;;34.78;18.52;;;;;;;;;;7367757;19;20022;-76
2022/03/10 10:23:17;;;;;;;36.92;18.55;;;;;;;;;;7371869;19;20405;-77
2022/03/10 10:25:50;;;;;;;31.85;17.73;;;;;;;;;;7370117;19;20118;-76
2022/03/10 10:28:22;;;;;;;31.60;18.02;;;;;;;;;;7370274;19;20347;-76
2022/03/10 10:30:51;;;;;;;35.83;18.27;;;;;;;;;;7379022;19;20014;-77
2022/03/10 10:33:17;;;;;;;35.13;18.38;;;;;;;;;;7371979;19;20407;-77
2022/03/10 10:35:43;;;;;;;34.35;18.65;;;;;;;;;;7375244;19;20011;-76
2022/03/10 10:38:08;;;;;;;34.72;19.13;;;;;;;;;;7376936;19;20054;-76
2022/03/10 10:40:34;;;;;;;34.53;18.10;;;;;;;;;;7370760;19;20014;-76
2022/03/10 10:43:02;;;;;;;31.98;18.08;;;;;;;;;;7376424;19;21474;-76
2022/03/10 10:45:31;;;;;;;29.35;16.92;;;;;;;;;;7375441;19;20014;-76
2022/03/10 10:48:06;;;;;;;31.73;17.27;;;;;;;;;;7370704;19;20066;-75
2022/03/10 10:50:33;;;;;;;32.35;18.40;;;;;;;;;;7374390;19;20018;-76
2022/03/10 10:52:58;;;;;;;31.52;17.83;;;;;;;;;;7366647;19;20019;-77
2022/03/10 10:55:45;;;;;;;32.42;17.23;;;;;;;;;;7374279;19;19999;-76
2022/03/10 10:58:13;;;;;;;33.67;17.73;;;;;;;;;;7371241;19;20475;-76
2022/03/10 11:00:42;;;;;;;32.45;17.42;;;;;;;;;;7374548;19;20049;-75
2022/03/10 11:03:22;;;;;;;38.58;19.48;;;;;;;;;;7376584;19;20021;-76
2022/03/10 11:05:48;;;;;;;35.00;18.15;;;;;;;;;;7362726;19;20018;-78
2022/03/10 11:08:14;;;;;;;38.60;19.10;;;;;;;;;;7373921;19;20026;-75
2022/03/10 11:10:39;;;;;;;35.50;18.90;;;;;;;;;;7367917;19;20014;-76
2022/03/10 11:13:05;;;;;;;36.20;19.55;;;;;;;;;;7359512;19;20010;-76
2022/03/10 11:15:30;;;;;;;35.40;18.93;;;;;;;;;;7364590;19;20015;-77
2022/03/10 11:17:55;;;;;;;34.15;18.75;;;;;;;;;;7373391;19;20228;-76
2022/03/10 11:20:21;;;;;;;38.33;20.38;;;;;;;;;;7365537;19;20038;-77
2022/03/10 11:23:00;;;;;;;36.45;19.80;;;;;;;;;;7378930;19;20014;-76
2022/03/10 11:25:26;;;;;;;38.80;20.33;;;;;;;;;;7367574;19;20081;-77
2022/03/10 11:27:55;;;;;;;35.08;19.02;;;;;;;;;;7381106;19;20504;-76
2022/03/10 11:30:27;;;;;;;36.80;20.15;;;;;;;;;;7371644;19;20030;-77
2022/03/10 11:33:00;;;;;;;36.45;20.73;;;;;;;;;;7385257;19;20007;-76
2022/03/10 11:35:29;;;;;;;41.75;20.70;;;;;;;;;;7374653;19;20078;-76
2022/03/10 11:37:54;;;;;;;41.13;21.40;;;;;;;;;;7378443;19;20030;-76
2022/03/10 11:40:39;;;;;;;37.23;20.03;;;;;;;;;;7382191;19;20010;-76
2022/03/10 11:43:05;;;;;;;36.60;19.67;;;;;;;;;;7377522;19;21021;-76
2022/03/10 11:45:31;;;;;;;36.13;20.48;;;;;;;;;;7375432;19;20575;-77
2022/03/10 11:48:16;;;;;;;36.80;18.15;;;;;;;;;;7382087;19;20006;-76
2022/03/10 11:50:41;;;;;;;37.63;18.85;;;;;;;;;;7367712;19;20006;-76
2022/03/10 11:53:07;;;;;;;36.50;19.63;;;;;;;;;;7376270;19;20362;-77
2022/03/10 11:55:54;;;;;;;36.90;19.50;;;;;;;;;;7366079;19;20812;-76
2022/03/10 11:58:20;;;;;;;38.22;19.33;;;;;;;;;;7372343;19;20014;-77
2022/03/10 12:00:51;;;;;;;35.00;19.92;;;;;;;;;;7364336;19;20018;-78
2022/03/10 12:03:37;;;;;;;38.08;19.35;;;;;;;;;;7375444;19;20231;-76
2022/03/10 12:06:03;;;;;;;31.42;18.42;;;;;;;;;;7374374;19;20038;-77
2022/03/10 12:08:32;;;;;;;36.42;18.77;;;;;;;;;;7369415;19;20014;-77
2022/03/10 12:10:58;;;;;;;40.58;20.13;;;;;;;;;;7366022;19;20417;-77
2022/03/10 12:13:27;;;;;;;35.88;19.38;;;;;;;;;;7360266;19;20030;-76
2022/03/10 12:15:53;;;;;;;30.45;16.63;;;;;;;;;;7367533;19;20010;-78
2022/03/10 12:18:20;;;;;;;38.00;18.88;;;;;;;;;;7361880;19;20367;-77
2022/03/10 12:20:46;;;;;;;32.92;17.08;;;;;;;;;;7360263;19;20010;-76
2022/03/10 12:23:13;;;;;;;34.45;18.65;;;;;;;;;;7372630;19;20212;-77
2022/03/10 12:25:49;;;;;;;35.60;19.15;;;;;;;;;;7366292;19;20018;-77
2022/03/10 12:28:46;;;;;;;33.22;18.40;;;;;;;;;;7371708;19;20007;-75
2022/03/10 12:31:14;;;;;;;33.58;17.42;;;;;;;;;;7374234;19;20381;-76
2022/03/10 12:34:02;;;;;;;30.77;16.63;;;;;;;;;;7368974;19;20018;-76
2022/03/10 12:36:36;;;;;;;33.55;17.70;;;;;;;;;;7375160;19;20725;-76
2022/03/10 12:39:07;;;;;;;38.47;18.35;;;;;;;;;;7366791;19;20462;-77
2022/03/10 12:41:34;;;;;;;36.65;17.75;;;;;;;;;;7375826;19;20002;-76
2022/03/10 12:44:02;;;;;;;33.63;18.50;;;;;;;;;;7375266;19;20019;-76
2022/03/10 12:46:27;;;;;;;35.67;18.17;;;;;;;;;;7366133;19;20003;-76
2022/03/10 12:48:58;;;;;;;33.70;17.55;;;;;;;;;;7378143;19;20102;-76
2022/03/10 12:51:24;;;;;;;31.05;17.42;;;;;;;;;;7378005;19;20014;-76
2022/03/10 12:53:51;;;;;;;38.90;19.30;;;;;;;;;;7359935;19;20320;-76
2022/03/10 12:56:16;;;;;;;33.63;18.95;;;;;;;;;;7376060;19;20029;-76
2022/03/10 12:58:44;;;;;;;31.77;17.33;;;;;;;;;;7377539;19;20463;-76
2022/03/10 13:01:09;;;;;;;36.90;18.00;;;;;;;;;;7363806;19;20010;-77
2022/03/10 13:03:35;;;;;;;32.58;17.00;;;;;;;;;;7375421;19;20010;-76
2022/03/10 13:06:02;;;;;;;29.02;16.15;;;;;;;;;;7376146;19;20518;-77
2022/03/10 13:08:28;;;;;;;30.02;15.25;;;;;;;;;;7365708;19;20573;-76
2022/03/10 13:10:59;;;;;;;27.52;15.18;;;;;;;;;;7381302;19;20016;-75
2022/03/10 13:13:28;;;;;;;28.85;14.88;;;;;;;;;;7373408;19;20117;-76
2022/03/10 13:16:01;;;;;;;29.00;14.55;;;;;;;;;;7372719;19;20434;-76
2022/03/10 13:18:26;;;;;;;26.98;14.45;;;;;;;;;;7380697;19;20018;-75
2022/03/10 13:20:51;;;;;;;26.80;15.00;;;;;;;;;;7371727;19;19995;-75
2022/03/10 13:23:23;;;;;;;25.02;14.23;;;;;;;;;;7378351;19;20027;-75
2022/03/10 13:25:49;;;;;;;26.13;14.68;;;;;;;;;;7376940;19;20578;-75
2022/03/10 13:28:15;;;;;;;25.88;14.57;;;;;;;;;;7370829;19;20328;-75
2022/03/10 13:30:42;;;;;;;22.40;12.48;;;;;;;;;;7374136;19;20277;-76
2022/03/10 13:33:09;;;;;;;25.23;13.43;;;;;;;;;;7371519;19;19998;-74
2022/03/10 13:35:39;;;;;;;24.00;13.13;;;;;;;;;;7375896;19;20018;-75
2022/03/10 13:38:05;;;;;;;25.13;13.02;;;;;;;;;;7377351;19;20369;-76
2022/03/10 13:40:31;;;;;;;26.20;14.80;;;;;;;;;;7369222;19;20025;-76
2022/03/10 13:42:58;;;;;;;26.33;14.00;;;;;;;;;;7376909;19;20026;-76
2022/03/10 13:45:24;;;;;;;22.50;12.65;;;;;;;;;;7372152;19;20313;-75
2022/03/10 13:47:49;;;;;;;24.52;14.02;;;;;;;;;;7366367;19;20066;-76
2022/03/10 13:50:16;;;;;;;23.83;13.23;;;;;;;;;;7365458;19;20527;-75
2022/03/10 13:52:42;;;;;;;23.23;13.15;;;;;;;;;;7370063;19;20463;-75
2022/03/10 13:55:13;;;;;;;24.10;13.10;;;;;;;;;;7368227;19;20490;-75
2022/03/10 13:57:42;;;;;;;22.52;12.77;;;;;;;;;;7378225;19;20263;-75
2022/03/10 14:00:07;;;;;;;24.13;13.00;;;;;;;;;;7365138;19;20038;-75
2022/03/10 14:02:32;;;;;;;22.80;12.70;;;;;;;;;;7372496;19;19994;-77
2022/03/10 14:04:57;;;;;;;25.25;12.45;;;;;;;;;;7364388;19;20091;-76
2022/03/10 14:07:23;;;;;;;24.63;12.87;;;;;;;;;;7364877;19;20006;-75
2022/03/10 14:09:49;;;;;;;23.58;12.73;;;;;;;;;;7352761;19;20275;-78
2022/03/10 14:12:15;;;;;;;25.17;13.68;;;;;;;;;;7366053;19;20023;-76
2022/03/10 14:14:42;;;;;;;20.65;12.18;;;;;;;;;;7367318;19;20025;-76
2022/03/10 14:17:08;;;;;;;19.20;11.35;;;;;;;;;;7373681;19;20027;-76